• Join FlightAware (Why Join?)
  • Login
  • US Flag 
02:31AM EDT


 

Airport Tracker/Info


-or-


 

Live Flight TrackerFlight Track Log ✈ EJA922 ✈ 21-Aug-2013 ✈ KIWA - KASE

Flight Track Log - Related Links

Times and Time Zones

All times are in EDT time to prevent confusion due to time zone crossing. See the EJA922 flight status page for this flight to view local times or setup timezone preferences in your user account.

Time Position Orientation Groundspeed Altitude Reporting Facility
EDT Latitude Longitude Course Direction KTS MPH feet Rate Location/Type
10:16AM 33.3000 -111.6500 140° Southeast 180 207 2,000  Level Phoenix TRACON
10:17AM 33.2667 -111.6167 140° Southeast 221 254 3,800 1,560 Climbing Phoenix TRACON
10:18AM 33.2333 -111.5667 129° Southeast 229 264 4,400 2,280 Climbing Phoenix TRACON
10:19AM 33.2833 -111.5167 40° Northeast 275 316 8,400 3,720 Climbing Phoenix TRACON
10:20AM 33.3528 -111.5167 360° North 287 330 11,900 3,000 Climbing Albuquerque Center
10:21AM 33.4447 -111.5464 345° North 346 398 14,200 2,040 Climbing Albuquerque Center
10:22AM 33.5450 -111.5897 340° North 381 438 16,200 1,920 Climbing Albuquerque Center
10:23AM 33.6497 -111.6342 341° North 396 456 18,200 2,040 Climbing Albuquerque Center
10:24AM 33.7722 -111.6833 342° North 401 461 20,500 2,040 Climbing Albuquerque Center
10:25AM 33.8797 -111.7264 342° North 407 468 22,400 1,620 Climbing Albuquerque Center
10:26AM 33.9931 -111.7339 357° North 423 487 23,900 1,440 Climbing Albuquerque Center
10:27AM 34.0956 -111.6661 29° Northeast 425 489 25,400 1,440 Climbing Albuquerque Center
10:28AM 34.2003 -111.5933 30° Northeast 435 501 26,900 1,440 Climbing Albuquerque Center
10:29AM 34.3050 -111.5139 32° Northeast 441 507 28,400 1,440 Climbing Albuquerque Center
10:30AM 34.4136 -111.4392 30° Northeast 447 514 29,900 1,500 Climbing Albuquerque Center
10:31AM 34.5489 -111.3483 29° Northeast 459 528 31,500 1,380 Climbing Albuquerque Center
10:32AM 34.6631 -111.2667 30° Northeast 471 542 32,800 1,200 Climbing Albuquerque Center
10:33AM 34.7797 -111.1839 30° Northeast 480 552 34,100 1,140 Climbing Albuquerque Center
10:34AM 34.8997 -111.0981 30° Northeast 494 568 35,200 1,140 Climbing Albuquerque Center
10:35AM 35.0214 -111.0086 31° Northeast 505 581 36,500 840 Climbing Albuquerque Center
10:36AM 35.1525 -110.9167 30° Northeast 520 598 37,000 240 Climbing Albuquerque Center
10:37AM 35.2981 -110.8103 31° Northeast 538 619 37,000  Level Albuquerque Center
10:38AM 35.4261 -110.7192 30° Northeast 549 632 37,000  Level Albuquerque Center
10:39AM 35.5739 -110.6111 31° Northeast 551 634 37,000  Level Albuquerque Center
10:40AM 35.7000 -110.5194 31° Northeast 550 633 37,000  Level Albuquerque Center
10:41AM 35.8467 -110.4119 31° Northeast 548 631 37,000  Level Albuquerque Center
10:42AM 35.9253 -110.3553 30° Northeast 547 629 37,000  Level Denver Center
10:43AM 36.0569 -110.2586 31° Northeast 549 632 37,000  Level Denver Center
10:44AM 36.1861 -110.1631 31° Northeast 546 628 37,000  Level Denver Center
10:45AM 36.3281 -110.0572 31° Northeast 547 629 37,000  Level Denver Center
10:46AM 36.4544 -109.9636 31° Northeast 549 632 37,000  Level Denver Center
10:47AM 36.6017 -109.8539 31° Northeast 550 633 37,000  Level Denver Center
10:48AM 36.7281 -109.7597 31° Northeast 549 632 37,000  Level Denver Center
10:49AM 36.8736 -109.6489 31° Northeast 547 629 37,000  Level Denver Center
10:50AM 37.0192 -109.5386 31° Northeast 547 629 37,000  Level Denver Center
10:52AM 37.1644 -109.4289 31° Northeast 544 626 37,000  Level Denver Center
10:53AM 37.2894 -109.3319 32° Northeast 549 632 37,000  Level Denver Center
10:54AM 37.4342 -109.2211 31° Northeast 545 627 37,000  Level Denver Center
10:55AM 37.5992 -109.0931 32° Northeast 544 626 37,000  Level Denver Center
10:56AM 37.7233 -108.9969 31° Northeast 546 628 37,000  Level Denver Center
10:57AM 37.8594 -108.8728 36° Northeast 540 621 37,000 -420 Level Denver Center
10:58AM 37.9631 -108.7433 45° Northeast 542 624 36,200 -900 Descending Denver Center
10:59AM 38.0664 -108.6147 44° Northeast 542 624 35,200 -600 Descending Denver Center
11:00AM 38.1856 -108.4622 45° Northeast 544 626 35,000 -120 Descending Denver Center
11:01AM 38.2728 -108.3544 44° Northeast 546 628 35,000 -720 Level Denver Center
11:02AM 38.4169 -108.1781 44° Northeast 543 625 33,600 -1,860 Descending Denver Center
11:03AM 38.5236 -108.0433 45° Northeast 541 623 31,200 -2,520 Descending Denver Center
11:04AM 38.6394 -107.8986 44° Northeast 544 626 28,500 -2,400 Descending Denver Center
11:05AM 38.7314 -107.7783 46° Northeast 546 628 26,300 -2,460 Descending Denver Center
11:06AM 38.8422 -107.6400 44° Northeast 503 579 23,500 -2,700 Descending Denver Center
11:07AM 38.9483 -107.5069 44° Northeast 493 567 20,800 -1,740 Descending Denver Center
11:08AM 39.0389 -107.3889 45° Northeast 479 551 20,000 -420 Descending Denver Center
11:09AM 39.1267 -107.2772 45° Northeast 460 529 20,000 -480 Level Denver Center
11:10AM 39.2014 -107.1861 43° Northeast 387 445 19,000 -960 Descending Denver Center
11:11AM 39.2700 -107.1017 44° Northeast 352 405 18,000 -540 Descending Denver Center
11:12AM 39.3394 -107.1067 357° North 273 314 18,000 -60 Level Denver Center
11:13AM 39.4186 -107.1325 346° North 268 308 17,900 -600 Descending Denver Center
11:14AM 39.4933 -107.1569 346° North 274 315 16,800 -840 Descending Denver Center
11:16AM 39.5625 -107.1528 North 276 318 16,200 -540 Descending Denver Center
11:17AM 39.5458 -107.0711 105° East 285 328 15,800 -420 Descending Denver Center
11:18AM 39.4686 -107.0094 148° Southeast 276 318 15,400 -1,020 Descending Denver Center
11:19AM 39.4106 -106.9725 154° Southeast 255 293 13,700 -1,740 Descending Denver Center
11:20AM 39.3506 -106.9450 160° South 242 278 11,500 -2,100 Descending Denver Center
11:21AM 39.2911 -106.9058 153° Southeast 189 217 9,000 -1,560 Descending Denver Center
11:22AM 39.2581 -106.8814 150° Southeast 175 201 8,300 -720 Descending Denver Center